Terminal Aerodrome Forecast
Issued by NWS

Home | Current Version | Previous Version | Text Only | Print | Product List | Glossary On
Versions: 1 2 3 4 5 6 7 8 9 10 11 12 13 14
000
FTUS46 KPDT 212320
TAFRDM
TAF
KRDM 212320Z 2200/2224 35009G17KT P6SM SKC
     FM221000 17003KT 6SM HZ SKC
     FM221800 35010G18KT P6SM SKC=

USA.gov is the U.S. government's official web portal to all federal, state and local government web resources and services.